Time;durP1;ratioP1;P1;durP2;ratioP2;P2;SDS_P1;SDS_P2;PMS_P1;PMS_P2;Temp;Humidity;BMP_temperature;BMP_pressure;BME280_temperature;BME280_humidity;BME280_pressure;Samples;Min_cycle;Max_cycle;Signal;HPM_P1;HPM_P2
2022/12/28 00:02:24;;;;;;;7.57;6.20;;;7.40;99.90;;;;;;5116056;28;20253;-51
2022/12/28 00:04:50;;;;;;;8.85;6.00;;;7.40;99.90;;;;;;5115626;28;20214;-53
2022/12/28 00:07:16;;;;;;;9.40;7.15;;;7.50;99.90;;;;;;5115584;28;20237;-54
2022/12/28 00:09:41;;;;;;;8.13;6.72;;;7.50;99.90;;;;;;5115697;28;20172;-53
2022/12/28 00:12:07;;;;;;;8.60;7.38;;;7.70;99.90;;;;;;5115741;28;20180;-53
2022/12/28 00:14:33;;;;;;;7.57;6.32;;;7.60;99.90;;;;;;5115378;28;20573;-52
2022/12/28 00:16:59;;;;;;;10.18;7.15;;;7.60;99.90;;;;;;5115507;28;20177;-54
2022/12/28 00:19:25;;;;;;;12.30;6.75;;;7.70;99.90;;;;;;5115349;28;20179;-52
2022/12/28 00:21:53;;;;;;;8.25;6.53;;;7.80;99.90;;;;;;5115522;28;20183;-53
2022/12/28 00:24:21;;;;;;;7.57;6.60;;;7.70;99.90;;;;;;5115237;28;20176;-54
2022/12/28 00:26:47;;;;;;;8.18;6.70;;;7.80;99.90;;;;;;5115220;28;20165;-54
2022/12/28 00:29:16;;;;;;;8.23;6.07;;;7.80;99.90;;;;;;5115248;28;20200;-54
2022/12/28 00:31:44;;;;;;;9.13;6.38;;;7.80;99.90;;;;;;5115088;28;20222;-54
2022/12/28 00:34:13;;;;;;;10.82;6.10;;;7.80;99.90;;;;;;5115017;28;20288;-54
2022/12/28 00:36:39;;;;;;;7.88;6.32;;;7.80;99.90;;;;;;5114978;28;20180;-50
2022/12/28 00:39:08;;;;;;;8.57;6.15;;;7.70;99.90;;;;;;5115455;28;20178;-51
2022/12/28 00:41:33;;;;;;;8.35;6.32;;;7.80;99.90;;;;;;5115025;28;20507;-53
2022/12/28 00:43:59;;;;;;;10.10;6.55;;;7.80;99.90;;;;;;5115141;28;20205;-54
2022/12/28 00:46:25;;;;;;;9.32;6.43;;;7.80;99.90;;;;;;5114857;28;20177;-53
2022/12/28 00:48:50;;;;;;;6.60;5.97;;;7.80;99.90;;;;;;5114745;28;20698;-53
2022/12/28 00:51:18;;;;;;;6.38;5.47;;;7.90;99.90;;;;;;5114941;28;20268;-51
2022/12/28 00:53:44;;;;;;;8.32;5.70;;;7.90;99.90;;;;;;5114781;28;20258;-52
2022/12/28 00:56:15;;;;;;;6.68;5.75;;;8.00;99.90;;;;;;5114730;28;20182;-51
2022/12/28 00:58:42;;;;;;;7.05;6.05;;;7.90;99.90;;;;;;5114912;28;20227;-52
2022/12/28 01:01:13;;;;;;;8.80;5.88;;;8.00;99.90;;;;;;5114868;28;20181;-52
2022/12/28 01:03:42;;;;;;;8.35;6.10;;;8.00;99.90;;;;;;5113356;28;20507;-52
2022/12/28 01:06:13;;;;;;;9.77;6.13;;;8.00;99.90;;;;;;5114444;28;20177;-52
2022/12/28 01:08:39;;;;;;;8.35;5.63;;;8.10;99.90;;;;;;5114420;28;20188;-53
2022/12/28 01:11:08;;;;;;;7.78;5.95;;;8.00;99.90;;;;;;5113173;28;20185;-54
2022/12/28 01:13:33;;;;;;;6.43;5.75;;;8.10;99.90;;;;;;5114211;28;20246;-50
2022/12/28 01:15:59;;;;;;;8.32;6.13;;;8.00;99.90;;;;;;5114231;28;20174;-52
2022/12/28 01:18:25;;;;;;;7.25;5.85;;;8.10;99.90;;;;;;5114265;28;20173;-55
2022/12/28 01:20:50;;;;;;;7.53;6.35;;;8.10;99.90;;;;;;5114361;28;20631;-54
2022/12/28 01:23:16;;;;;;;8.00;6.57;;;8.10;99.90;;;;;;5114241;28;20174;-54
2022/12/28 01:25:41;;;;;;;6.93;6.28;;;8.10;99.90;;;;;;5114188;28;20231;-55
2022/12/28 01:28:07;;;;;;;9.05;6.72;;;8.10;99.90;;;;;;5114071;28;20180;-51
2022/12/28 01:30:33;;;;;;;7.07;6.38;;;8.10;99.90;;;;;;5113943;28;20194;-51
2022/12/28 01:32:59;;;;;;;8.45;6.63;;;8.10;99.90;;;;;;5114180;28;20623;-52
2022/12/28 01:35:25;;;;;;;8.30;6.50;;;8.00;99.90;;;;;;5114217;28;20587;-54
2022/12/28 01:37:50;;;;;;;7.78;6.93;;;8.00;99.90;;;;;;5113779;28;20181;-51
2022/12/28 01:40:16;;;;;;;8.15;7.03;;;8.10;99.90;;;;;;5112673;28;20184;-51
2022/12/28 01:42:42;;;;;;;7.72;6.95;;;8.10;99.90;;;;;;5113675;28;20181;-54
2022/12/28 01:45:20;;;;;;;8.32;7.30;;;8.20;99.90;;;;;;5113973;28;20605;-51
2022/12/28 01:47:48;;;;;;;8.20;7.22;;;8.30;99.90;;;;;;5114063;28;20202;-54
2022/12/28 01:50:18;;;;;;;8.93;7.60;;;8.30;99.90;;;;;;5114067;28;20168;-52
2022/12/28 01:52:58;;;;;;;9.45;6.75;;;8.30;99.90;;;;;;5113765;28;20168;-51
2022/12/28 01:55:28;;;;;;;8.07;7.13;;;8.20;99.90;;;;;;5113977;28;20192;-54
2022/12/28 01:58:02;;;;;;;9.85;7.53;;;8.20;99.90;;;;;;5113735;28;20165;-54
2022/12/28 02:00:28;;;;;;;8.60;7.70;;;8.30;99.90;;;;;;5112412;28;20181;-51
2022/12/28 02:02:59;;;;;;;8.73;7.10;;;8.40;99.90;;;;;;5113594;28;20177;-53
2022/12/28 02:05:33;;;;;;;10.05;7.30;;;8.30;99.90;;;;;;5113736;28;20176;-52
2022/12/28 02:08:07;;;;;;;8.30;7.50;;;8.30;99.90;;;;;;5113611;28;20678;-53
2022/12/28 02:10:35;;;;;;;10.25;8.13;;;8.20;99.90;;;;;;5113463;28;20632;-54
2022/12/28 02:13:02;;;;;;;9.07;7.97;;;8.30;99.90;;;;;;5113682;28;20178;-53
2022/12/28 02:15:30;;;;;;;9.30;7.90;;;8.30;99.90;;;;;;5117217;28;20184;-52
2022/12/28 02:17:56;;;;;;;11.48;8.15;;;8.30;99.90;;;;;;5117772;28;20180;-51
2022/12/28 02:20:30;;;;;;;9.40;7.13;;;8.30;99.90;;;;;;5117613;28;20177;-53
2022/12/28 02:23:33;;;;;;;8.57;7.63;;;8.40;99.90;;;;;;5117860;28;20204;-53
2022/12/28 02:26:30;;;;;;;10.52;7.75;;;8.30;99.90;;;;;;5117644;28;20169;-53
2022/12/28 02:29:14;;;;;;;8.00;7.20;;;8.30;99.90;;;;;;5117545;28;20169;-52
2022/12/28 02:31:49;;;;;;;8.50;7.13;;;8.30;99.90;;;;;;5117520;28;20181;-54
2022/12/28 02:34:53;;;;;;;11.27;7.03;;;8.40;99.90;;;;;;5117513;28;20208;-53
2022/12/28 02:37:25;;;;;;;7.88;7.07;;;8.50;99.90;;;;;;5095636;28;20192;-53
2022/12/28 02:40:23;;;;;;;9.68;7.32;;;8.50;99.90;;;;;;5117545;28;20173;-54
2022/12/28 02:42:52;;;;;;;11.68;7.35;;;8.60;99.90;;;;;;5116911;28;20234;-53
2022/12/28 02:51:48;;;;;;;7.93;6.53;;;8.50;99.90;;;;;;5117373;28;20194;-54
2022/12/28 02:57:49;;;;;;;8.88;6.40;;;8.60;99.90;;;;;;5116967;28;20316;-56
2022/12/28 03:00:20;;;;;;;9.73;6.72;;;8.60;99.90;;;;;;5116924;28;20253;-52
2022/12/28 03:02:58;;;;;;;8.48;6.18;;;8.50;99.90;;;;;;5115861;28;20176;-53
2022/12/28 03:09:12;;;;;;;8.95;6.20;;;8.70;99.90;;;;;;5116816;28;20207;-54
2022/12/28 03:11:52;;;;;;;7.85;5.88;;;8.60;99.90;;;;;;5116829;28;20635;-54
2022/12/28 03:14:31;;;;;;;8.02;5.82;;;8.70;99.90;;;;;;5116627;28;20200;-55
2022/12/28 03:31:06;;;;;;;9.05;5.38;;;8.80;99.90;;;;;;5116379;28;20180;-55
2022/12/28 03:33:39;;;;;;;7.25;5.13;;;8.80;99.90;;;;;;5116002;28;20197;-55
2022/12/28 03:36:36;;;;;;;8.18;4.85;;;8.80;99.90;;;;;;5116273;28;20180;-56
2022/12/28 03:39:13;;;;;;;6.43;4.97;;;8.80;99.90;;;;;;5115076;28;20754;-53
2022/12/28 03:44:41;;;;;;;6.10;4.82;;;8.90;99.90;;;;;;5116244;28;20727;-54
2022/12/28 03:47:11;;;;;;;6.85;4.90;;;8.80;99.90;;;;;;5116181;28;20169;-54
2022/12/28 03:49:37;;;;;;;7.85;4.72;;;8.90;99.90;;;;;;5116060;28;20161;-54
2022/12/28 03:52:04;;;;;;;5.20;4.40;;;8.90;99.90;;;;;;5115918;28;20178;-51
2022/12/28 03:54:30;;;;;;;7.57;5.20;;;8.90;99.90;;;;;;5115768;28;20213;-52
2022/12/28 03:56:55;;;;;;;10.32;4.93;;;8.90;99.90;;;;;;5114714;28;20611;-51
2022/12/28 03:59:21;;;;;;;6.70;4.97;;;9.00;99.90;;;;;;5115928;28;20680;-52
2022/12/28 04:01:46;;;;;;;5.30;4.80;;;8.90;99.90;;;;;;5115844;28;20260;-54
2022/12/28 04:04:13;;;;;;;7.90;4.63;;;8.90;99.90;;;;;;5115778;28;20193;-54
2022/12/28 04:06:38;;;;;;;6.43;4.90;;;8.90;99.90;;;;;;5115590;28;20534;-52
2022/12/28 04:09:05;;;;;;;8.15;4.95;;;8.90;99.90;;;;;;5115441;28;20170;-53
2022/12/28 04:11:32;;;;;;;5.80;4.82;;;8.90;99.90;;;;;;5115546;28;20245;-54
2022/12/28 04:13:58;;;;;;;7.57;4.78;;;9.00;99.90;;;;;;5115585;28;20215;-54
2022/12/28 04:16:23;;;;;;;7.65;4.05;;;9.00;99.90;;;;;;5115445;28;20169;-54
2022/12/28 04:18:49;;;;;;;6.10;3.97;;;9.10;99.90;;;;;;5115416;28;20187;-53
2022/12/28 04:21:15;;;;;;;7.03;4.20;;;9.00;99.90;;;;;;5115321;28;20174;-55
2022/12/28 04:23:41;;;;;;;5.43;4.43;;;9.00;99.90;;;;;;5115289;28;20181;-54
2022/12/28 04:26:13;;;;;;;6.45;4.22;;;9.00;99.90;;;;;;5115710;28;20234;-54
2022/12/28 04:28:42;;;;;;;8.15;3.72;;;9.00;99.90;;;;;;5115236;28;20649;-53
2022/12/28 04:31:11;;;;;;;4.72;4.00;;;9.10;99.90;;;;;;5115564;28;20168;-52
2022/12/28 04:33:38;;;;;;;4.55;3.58;;;9.10;99.90;;;;;;5114965;28;20678;-51
2022/12/28 04:36:12;;;;;;;5.18;3.58;;;9.20;99.90;;;;;;5114996;28;20169;-52
2022/12/28 04:38:38;;;;;;;5.82;3.70;;;9.10;99.90;;;;;;5113728;28;20166;-54
2022/12/28 04:41:05;;;;;;;5.20;3.88;;;9.20;99.90;;;;;;5115232;28;20622;-54
2022/12/28 04:43:32;;;;;;;6.43;3.75;;;9.20;99.90;;;;;;5114867;28;20538;-54
2022/12/28 04:46:09;;;;;;;3.35;3.05;;;9.20;99.90;;;;;;5114647;28;20695;-52
2022/12/28 04:48:35;;;;;;;6.50;3.60;;;9.30;99.90;;;;;;5114799;28;20484;-51
2022/12/28 04:51:19;;;;;;;4.72;2.97;;;9.30;99.90;;;;;;5114935;28;20168;-51
2022/12/28 04:53:44;;;;;;;5.00;3.33;;;9.30;99.90;;;;;;5114901;28;20213;-52
2022/12/28 04:56:11;;;;;;;8.20;3.15;;;9.30;99.90;;;;;;5114716;28;20238;-51
2022/12/28 04:58:37;;;;;;;3.80;3.00;;;9.30;99.90;;;;;;5114680;28;20174;-54
2022/12/28 05:01:08;;;;;;;8.32;3.30;;;9.30;99.90;;;;;;5114514;28;20180;-52
2022/12/28 05:03:36;;;;;;;6.05;3.05;;;9.30;99.90;;;;;;5114733;28;20275;-53
2022/12/28 05:06:03;;;;;;;5.05;3.20;;;9.30;99.90;;;;;;5114464;28;20176;-54
2022/12/28 05:08:34;;;;;;;5.25;2.85;;;9.40;99.90;;;;;;5114532;28;20166;-57
2022/12/28 05:11:10;;;;;;;6.75;3.10;;;9.40;99.90;;;;;;5114446;28;20183;-51
2022/12/28 05:13:36;;;;;;;3.40;2.83;;;9.40;99.90;;;;;;5114183;28;20694;-54
2022/12/28 05:16:13;;;;;;;6.32;2.83;;;9.50;99.90;;;;;;5114470;28;20165;-52
2022/12/28 05:18:39;;;;;;;5.03;2.95;;;9.40;99.90;;;;;;5114456;28;20175;-54
2022/12/28 05:21:06;;;;;;;3.53;2.60;;;9.40;99.90;;;;;;5114176;28;20176;-53
2022/12/28 05:23:33;;;;;;;4.82;3.38;;;9.40;99.90;;;;;;5114233;28;20218;-53
2022/12/28 05:25:59;;;;;;;5.97;2.95;;;9.50;99.90;;;;;;5114016;28;20161;-54
2022/12/28 05:28:25;;;;;;;4.05;3.10;;;9.50;99.90;;;;;;5114181;28;20533;-50
2022/12/28 05:30:52;;;;;;;5.20;2.75;;;9.50;99.90;;;;;;5114323;28;20574;-50
2022/12/28 05:33:18;;;;;;;4.40;2.80;;;9.60;99.90;;;;;;5113997;28;20196;-54
2022/12/28 05:35:44;;;;;;;4.40;3.03;;;9.50;99.90;;;;;;5114038;28;20184;-51
2022/12/28 05:38:09;;;;;;;4.13;2.55;;;9.50;99.90;;;;;;5112850;28;20165;-52
2022/12/28 05:40:35;;;;;;;4.07;3.00;;;9.60;99.90;;;;;;5113745;28;20169;-54
2022/12/28 05:43:01;;;;;;;5.25;2.85;;;9.60;99.90;;;;;;5113777;28;20193;-53
2022/12/28 05:45:26;;;;;;;3.88;2.28;;;9.50;99.90;;;;;;5112880;28;20177;-53
2022/12/28 05:47:53;;;;;;;3.22;2.33;;;9.50;99.90;;;;;;5112876;28;20214;-54
2022/12/28 05:50:19;;;;;;;3.55;2.50;;;9.60;99.90;;;;;;5113365;28;20176;-54
2022/12/28 05:52:45;;;;;;;4.10;2.60;;;9.70;99.90;;;;;;5114054;28;20181;-53
2022/12/28 05:55:10;;;;;;;4.10;2.60;;;9.60;99.90;;;;;;5113599;28;20205;-52
2022/12/28 05:57:36;;;;;;;4.28;2.50;;;9.60;99.90;;;;;;5113700;28;20169;-51
2022/12/28 06:00:02;;;;;;;3.80;2.72;;;9.60;99.90;;;;;;5113855;28;20269;-53
2022/12/28 06:02:28;;;;;;;6.28;3.05;;;9.70;99.90;;;;;;5113691;28;20169;-53
2022/12/28 06:04:54;;;;;;;5.13;3.42;;;9.80;99.90;;;;;;5112419;28;20749;-54
2022/12/28 06:07:20;;;;;;;3.47;2.70;;;9.80;99.90;;;;;;5113702;28;20531;-54
2022/12/28 06:09:45;;;;;;;4.57;2.88;;;9.80;99.90;;;;;;5113813;28;20649;-52
2022/12/28 06:12:11;;;;;;;3.95;2.90;;;9.70;99.90;;;;;;5112459;28;20178;-53
2022/12/28 06:14:37;;;;;;;5.65;2.95;;;9.70;99.90;;;;;;5113625;28;20932;-54
2022/12/28 06:17:02;;;;;;;4.20;3.20;;;9.80;99.90;;;;;;5113476;28;20196;-54
2022/12/28 06:19:28;;;;;;;6.57;3.10;;;9.70;99.90;;;;;;5113585;28;20642;-51
2022/12/28 06:21:54;;;;;;;3.90;3.20;;;9.80;99.90;;;;;;5113393;28;20316;-55
2022/12/28 06:24:19;;;;;;;5.20;3.00;;;9.80;99.90;;;;;;5113266;28;20177;-53
2022/12/28 06:26:45;;;;;;;4.60;2.78;;;9.70;99.90;;;;;;5112345;28;20188;-51
2022/12/28 06:29:11;;;;;;;3.33;2.70;;;9.80;99.90;;;;;;5113545;28;20177;-54
2022/12/28 06:31:39;;;;;;;5.13;3.00;;;9.80;99.90;;;;;;5113334;28;20265;-54
2022/12/28 06:34:07;;;;;;;5.30;2.92;;;9.80;99.90;;;;;;5113301;28;20223;-54
2022/12/28 06:36:36;;;;;;;6.40;3.10;;;9.90;99.90;;;;;;5112105;28;20538;-52
2022/12/28 06:39:04;;;;;;;5.85;3.30;;;9.90;99.90;;;;;;5113220;28;20196;-55
2022/12/28 06:41:30;;;;;;;6.13;3.05;;;9.80;99.90;;;;;;5113294;28;20238;-56
2022/12/28 06:43:57;;;;;;;4.43;3.00;;;9.80;99.90;;;;;;5113295;28;20211;-53
2022/12/28 06:46:25;;;;;;;5.68;2.90;;;9.80;99.90;;;;;;5113253;28;20203;-54
2022/12/28 06:48:51;;;;;;;7.13;3.33;;;9.90;99.90;;;;;;5111959;28;20169;-53
2022/12/28 06:51:24;;;;;;;8.68;3.17;;;9.80;99.90;;;;;;5113049;28;20678;-54
2022/12/28 06:53:51;;;;;;;4.10;2.92;;;9.90;99.90;;;;;;5113329;28;20205;-51
2022/12/28 06:56:18;;;;;;;5.68;3.15;;;9.90;99.90;;;;;;5111996;28;20209;-53
2022/12/28 06:58:46;;;;;;;6.25;3.45;;;9.90;99.90;;;;;;5111889;28;20177;-55
2022/12/28 07:01:23;;;;;;;4.28;3.13;;;9.90;99.90;;;;;;5116124;28;20522;-55
2022/12/28 07:03:51;;;;;;;6.05;3.00;;;9.90;99.90;;;;;;5116921;28;20173;-54
2022/12/28 07:06:19;;;;;;;7.03;2.88;;;9.90;99.90;;;;;;5116752;28;20170;-54
2022/12/28 07:08:45;;;;;;;5.82;2.97;;;9.90;99.90;;;;;;5116952;28;20180;-51
2022/12/28 07:11:14;;;;;;;6.00;2.72;;;9.90;99.90;;;;;;5116983;28;20174;-52
2022/12/28 07:13:40;;;;;;;5.75;2.70;;;9.80;99.90;;;;;;5115332;28;20612;-55
2022/12/28 07:16:16;;;;;;;7.15;3.33;;;9.80;99.90;;;;;;5114889;28;20722;-54
2022/12/28 07:18:42;;;;;;;6.57;2.70;;;9.80;99.90;;;;;;5114290;28;20588;-56
2022/12/28 07:21:13;;;;;;;8.73;3.10;;;9.90;99.90;;;;;;5114737;28;20560;-55
2022/12/28 07:23:39;;;;;;;7.25;2.97;;;9.90;99.90;;;;;;5114985;28;20723;-56
2022/12/28 07:26:17;;;;;;;5.82;2.78;;;9.90;99.90;;;;;;5115543;28;20169;-54
2022/12/28 07:28:44;;;;;;;9.77;3.38;;;10.00;99.90;;;;;;5115966;28;20690;-57
2022/12/28 07:31:13;;;;;;;6.57;2.97;;;9.90;99.90;;;;;;5115987;28;20177;-57
2022/12/28 07:33:39;;;;;;;6.75;2.65;;;10.00;99.90;;;;;;5113596;28;20205;-55
2022/12/28 07:36:06;;;;;;;5.28;2.75;;;9.90;99.90;;;;;;5116168;28;20604;-54
2022/12/28 07:38:32;;;;;;;7.47;3.03;;;9.90;99.90;;;;;;5114645;28;20205;-54
2022/12/28 07:41:06;;;;;;;7.72;2.85;;;10.00;99.90;;;;;;5115845;28;20292;-54
2022/12/28 07:43:32;;;;;;;6.30;2.50;;;9.90;99.90;;;;;;5114125;28;20189;-56
2022/12/28 07:46:06;;;;;;;6.40;2.78;;;9.90;99.90;;;;;;5115810;28;20188;-55
2022/12/28 07:48:33;;;;;;;6.45;3.00;;;10.00;99.90;;;;;;5114783;28;20165;-56
2022/12/28 07:51:25;;;;;;;8.18;3.50;;;10.00;99.90;;;;;;5112483;28;20169;-55
2022/12/28 07:53:52;;;;;;;9.50;3.08;;;10.10;99.90;;;;;;5114392;28;20212;-54
2022/12/28 07:56:19;;;;;;;7.45;3.13;;;10.00;99.90;;;;;;5096653;28;20689;-57
2022/12/28 07:58:52;;;;;;;7.95;2.53;;;10.00;99.90;;;;;;5115777;28;20678;-55
2022/12/28 08:01:21;;;;;;;4.03;2.60;;;10.10;99.90;;;;;;5115692;28;20646;-57
2022/12/28 08:03:47;;;;;;;8.00;2.90;;;10.00;99.90;;;;;;5115608;28;20178;-55
2022/12/28 08:06:19;;;;;;;7.13;2.60;;;9.90;99.90;;;;;;5115497;28;20172;-56
2022/12/28 08:08:47;;;;;;;6.88;2.60;;;10.00;99.90;;;;;;5114082;28;20169;-54
2022/12/28 08:11:15;;;;;;;5.50;2.90;;;10.00;99.90;;;;;;5115230;28;20526;-55
2022/12/28 08:13:43;;;;;;;7.93;2.83;;;9.90;99.90;;;;;;5115269;28;20566;-56
2022/12/28 08:16:11;;;;;;;7.88;2.80;;;10.00;99.90;;;;;;5115568;28;20157;-54
2022/12/28 08:18:38;;;;;;;5.82;2.35;;;10.00;99.90;;;;;;5115462;28;20173;-53
2022/12/28 08:21:07;;;;;;;7.82;2.80;;;10.00;99.90;;;;;;5115335;28;20176;-55
2022/12/28 08:23:32;;;;;;;6.20;2.38;;;10.00;99.90;;;;;;5115557;28;20166;-55
2022/12/28 08:26:32;;;;;;;6.72;2.70;;;10.00;99.90;;;;;;5115442;28;20260;-53
2022/12/28 08:29:01;;;;;;;3.75;2.20;;;10.00;99.90;;;;;;5114577;28;20188;-52
2022/12/28 08:31:29;;;;;;;7.47;2.75;;;10.00;99.90;;;;;;5115114;28;20173;-54
2022/12/28 08:33:56;;;;;;;5.97;2.47;;;10.10;99.90;;;;;;5114682;28;20211;-56
2022/12/28 08:36:22;;;;;;;4.68;2.67;;;10.10;99.90;;;;;;5113725;28;20201;-55
2022/12/28 08:38:49;;;;;;;6.38;2.90;;;10.00;99.90;;;;;;5115096;28;20557;-51
2022/12/28 08:41:18;;;;;;;4.10;2.30;;;10.00;99.90;;;;;;5113672;28;20184;-54
2022/12/28 08:43:44;;;;;;;9.57;3.10;;;10.00;99.90;;;;;;5114857;28;20192;-52
2022/12/28 08:46:13;;;;;;;5.63;2.72;;;10.00;99.90;;;;;;5114803;28;20157;-56
2022/12/28 08:48:39;;;;;;;6.00;2.65;;;10.00;99.90;;;;;;5114920;28;20234;-56
2022/12/28 08:51:11;;;;;;;6.82;3.30;;;10.00;99.90;;;;;;5114907;28;20173;-55
2022/12/28 08:53:37;;;;;;;7.45;2.95;;;10.10;99.90;;;;;;5114727;28;20669;-56
2022/12/28 08:56:10;;;;;;;4.50;2.70;;;10.10;99.90;;;;;;5114757;28;20188;-56
2022/12/28 08:58:37;;;;;;;6.90;2.78;;;10.10;99.90;;;;;;5114601;28;20264;-56
2022/12/28 09:01:09;;;;;;;4.18;2.38;;;10.10;99.90;;;;;;5114618;28;20642;-57
2022/12/28 09:03:36;;;;;;;5.88;2.75;;;10.10;99.90;;;;;;5114527;28;20173;-57
2022/12/28 09:06:08;;;;;;;4.50;2.80;;;10.10;99.90;;;;;;5114521;28;20212;-57
2022/12/28 09:08:34;;;;;;;5.68;3.03;;;10.10;99.90;;;;;;5108901;28;20530;-56
2022/12/28 09:11:01;;;;;;;7.63;3.20;;;10.00;99.90;;;;;;5113969;28;20172;-57
2022/12/28 09:13:27;;;;;;;5.15;2.60;;;10.00;99.90;;;;;;5114058;28;20313;-56
2022/12/28 09:16:05;;;;;;;7.28;3.05;;;10.00;99.90;;;;;;5113161;28;20173;-58
2022/12/28 09:18:32;;;;;;;9.05;3.00;;;10.00;99.90;;;;;;5114033;28;20177;-60
2022/12/28 09:21:12;;;;;;;7.03;2.97;;;9.80;99.90;;;;;;5112853;28;20223;-56
2022/12/28 09:23:38;;;;;;;6.38;2.90;;;9.90;99.90;;;;;;5113000;28;20176;-56
2022/12/28 09:26:09;;;;;;;6.95;3.33;;;9.90;99.90;;;;;;5113974;28;20178;-55
2022/12/28 09:28:35;;;;;;;5.97;3.03;;;9.90;99.90;;;;;;5113840;28;20174;-55
2022/12/28 09:31:06;;;;;;;9.18;3.95;;;10.00;99.90;;;;;;5113787;28;20187;-55
2022/12/28 09:36:18;;;;;;;6.55;3.15;;;9.90;99.90;;;;;;5113932;28;20653;-56
2022/12/28 09:38:44;;;;;;;7.40;3.58;;;9.90;99.90;;;;;;5113686;28;20238;-55
2022/12/28 09:41:48;;;;;;;9.57;3.60;;;10.00;99.90;;;;;;5113592;28;20536;-55
2022/12/28 09:44:16;;;;;;;8.57;2.92;;;10.00;99.90;;;;;;5113633;28;20199;-55
2022/12/28 09:46:59;;;;;;;6.53;3.45;;;9.90;99.90;;;;;;5113149;28;20546;-58
2022/12/28 09:49:43;;;;;;;6.68;2.95;;;9.90;99.90;;;;;;5113626;28;20222;-57
2022/12/28 09:52:45;;;;;;;6.70;3.45;;;9.90;99.90;;;;;;5113589;28;20173;-58
2022/12/28 09:55:14;;;;;;;5.70;3.30;;;10.00;99.90;;;;;;5113731;28;20208;-58
2022/12/28 09:57:50;;;;;;;7.15;3.63;;;10.00;99.90;;;;;;5111645;28;20169;-58
2022/12/28 10:00:23;;;;;;;6.20;3.08;;;10.00;99.90;;;;;;5111954;28;20176;-57
2022/12/28 10:02:57;;;;;;;6.38;3.55;;;10.00;99.90;;;;;;5113412;28;20173;-58
2022/12/28 10:05:24;;;;;;;8.27;3.42;;;10.00;99.90;;;;;;5113287;28;20172;-58
2022/12/28 10:07:51;;;;;;;5.93;3.55;;;9.90;99.90;;;;;;5112373;28;20173;-57
2022/12/28 10:10:20;;;;;;;6.70;3.47;;;10.00;99.90;;;;;;5113572;28;20165;-57
2022/12/28 10:12:47;;;;;;;7.30;3.53;;;10.00;99.90;;;;;;5113474;28;20273;-58
2022/12/28 10:15:14;;;;;;;6.78;3.53;;;10.00;99.90;;;;;;5113052;28;20242;-58
2022/12/28 10:17:41;;;;;;;8.68;3.83;;;9.90;99.90;;;;;;5113109;28;20169;-58
2022/12/28 10:20:17;;;;;;;8.65;3.85;;;10.10;99.90;;;;;;5113240;28;20193;-58
2022/12/28 10:22:47;;;;;;;5.82;3.55;;;10.00;99.90;;;;;;5112876;28;20169;-58
2022/12/28 10:25:19;;;;;;;6.97;3.78;;;10.10;99.90;;;;;;5113399;28;20579;-58
2022/12/28 10:27:45;;;;;;;6.18;3.53;;;10.00;99.90;;;;;;5113479;28;20184;-58
2022/12/28 10:30:20;;;;;;;7.38;3.70;;;10.10;99.90;;;;;;5113036;28;20178;-58
2022/12/28 10:32:57;;;;;;;6.82;3.30;;;10.10;99.90;;;;;;5111670;28;20177;-58
2022/12/28 10:35:28;;;;;;;5.55;3.20;;;10.10;99.90;;;;;;5113734;28;20569;-58
2022/12/28 10:38:02;;;;;;;6.43;3.42;;;10.10;99.90;;;;;;5115834;28;20204;-58
2022/12/28 10:40:31;;;;;;;5.90;3.42;;;10.10;99.90;;;;;;5116107;28;20222;-58
2022/12/28 10:42:59;;;;;;;7.50;3.65;;;10.10;99.90;;;;;;5104565;28;20193;-58
2022/12/28 10:45:36;;;;;;;6.32;3.58;;;10.20;99.90;;;;;;5116735;28;20256;-58
2022/12/28 10:48:12;;;;;;;9.90;3.63;;;10.30;99.90;;;;;;5117119;28;20198;-58
2022/12/28 10:50:42;;;;;;;5.15;3.15;;;10.30;99.90;;;;;;5117004;28;20222;-58
2022/12/28 10:53:28;;;;;;;6.13;3.38;;;10.30;99.90;;;;;;5116882;28;20161;-58
2022/12/28 10:56:19;;;;;;;5.80;3.58;;;10.30;99.90;;;;;;5105773;28;20203;-59
2022/12/28 10:58:47;;;;;;;8.88;3.70;;;10.20;99.90;;;;;;5116886;27;20180;-58
2022/12/28 11:01:12;;;;;;;6.53;3.88;;;10.20;99.90;;;;;;5116546;28;20595;-59
2022/12/28 11:03:41;;;;;;;7.13;3.70;;;10.20;99.90;;;;;;5115411;28;20213;-58
2022/12/28 11:06:18;;;;;;;5.82;3.63;;;10.10;99.90;;;;;;5113998;28;20172;-58
2022/12/28 11:08:59;;;;;;;11.65;3.75;;;10.20;99.90;;;;;;5114259;28;20197;-58
2022/12/28 11:11:25;;;;;;;10.50;3.45;;;10.20;99.90;;;;;;5116455;28;20944;-58
2022/12/28 11:14:13;;;;;;;9.43;3.80;;;10.20;99.90;;;;;;5116388;28;20266;-58
2022/12/28 11:16:40;;;;;;;8.45;3.50;;;10.30;99.90;;;;;;5116202;28;20181;-58
2022/12/28 11:19:06;;;;;;;9.52;3.88;;;10.40;99.90;;;;;;5116631;28;20165;-58
2022/12/28 11:21:34;;;;;;;9.75;4.20;;;10.40;99.90;;;;;;5116352;28;20275;-59
2022/12/28 11:24:00;;;;;;;5.85;3.72;;;10.30;99.90;;;;;;5115248;28;20527;-58
2022/12/28 11:26:27;;;;;;;10.05;3.38;;;10.30;99.90;;;;;;5116308;28;20199;-58
2022/12/28 11:28:54;;;;;;;12.23;3.65;;;10.30;99.90;;;;;;5116404;28;20165;-58
2022/12/28 11:31:28;;;;;;;8.30;3.63;;;10.30;99.90;;;;;;5116475;28;20223;-58
2022/12/28 11:34:03;;;;;;;9.18;3.78;;;10.30;99.90;;;;;;5115997;28;20209;-59
2022/12/28 11:36:30;;;;;;;9.27;3.55;;;10.20;99.90;;;;;;5115286;28;20177;-58
2022/12/28 11:38:57;;;;;;;11.23;3.50;;;10.30;99.90;;;;;;5115509;28;20172;-58
2022/12/28 11:41:22;;;;;;;9.13;3.30;;;10.30;99.90;;;;;;5116213;28;20189;-58
2022/12/28 11:44:04;;;;;;;10.07;3.65;;;10.40;99.90;;;;;;5116182;28;20249;-58
2022/12/28 11:46:30;;;;;;;8.45;3.97;;;10.40;99.90;;;;;;5115168;28;20214;-59
2022/12/28 11:49:22;;;;;;;5.75;3.58;;;10.30;99.90;;;;;;5116245;28;20266;-58
2022/12/28 11:52:19;;;;;;;8.68;3.53;;;10.40;99.90;;;;;;5112302;28;20217;-58
2022/12/28 11:54:54;;;;;;;9.65;3.63;;;10.50;99.90;;;;;;5115467;28;20253;-59
2022/12/28 11:57:42;;;;;;;9.13;3.67;;;10.50;99.90;;;;;;5113675;28;20177;-58
2022/12/28 12:00:20;;;;;;;9.98;3.42;;;10.40;99.90;;;;;;5114308;28;20250;-59
2022/12/28 12:02:51;;;;;;;9.32;3.53;;;10.40;99.90;;;;;;5115646;28;20648;-59
2022/12/28 12:05:38;;;;;;;8.70;3.58;;;10.50;99.90;;;;;;5115613;28;20268;-58
2022/12/28 12:08:15;;;;;;;6.43;3.30;;;10.40;99.90;;;;;;5115496;28;20169;-59
2022/12/28 12:10:45;;;;;;;15.18;7.15;;;10.50;99.90;;;;;;5115145;28;20264;-58
2022/12/28 12:13:26;;;;;;;10.38;5.30;;;10.50;99.90;;;;;;5114323;28;20177;-58
2022/12/28 12:16:05;;;;;;;12.30;4.90;;;10.60;99.90;;;;;;5113203;28;20177;-58
2022/12/28 12:18:44;;;;;;;6.85;3.95;;;10.50;99.90;;;;;;5114643;28;20173;-58
2022/12/28 12:21:28;;;;;;;9.02;3.20;;;10.50;99.90;;;;;;5115091;28;20168;-59
2022/12/28 12:24:08;;;;;;;7.22;3.33;;;10.50;99.90;;;;;;5115491;28;20252;-58
2022/12/28 12:26:37;;;;;;;11.50;4.45;;;10.50;99.90;;;;;;5115307;28;20173;-59
2022/12/28 12:29:29;;;;;;;8.23;3.65;;;10.50;99.90;;;;;;5115197;28;20173;-58
2022/12/28 12:32:06;;;;;;;7.40;3.13;;;10.50;99.90;;;;;;5115249;28;20166;-58
2022/12/28 12:34:53;;;;;;;10.15;4.20;;;10.40;99.90;;;;;;5114058;28;20192;-59
2022/12/28 12:37:36;;;;;;;7.88;3.78;;;10.50;99.90;;;;;;5115078;28;20177;-58
2022/12/28 12:40:16;;;;;;;8.80;3.83;;;10.50;99.90;;;;;;5115292;28;20180;-58
2022/12/28 12:43:06;;;;;;;8.52;3.45;;;10.60;99.90;;;;;;5114994;28;20161;-58
2022/12/28 12:45:52;;;;;;;8.07;4.32;;;10.50;99.90;;;;;;5114981;28;20174;-59
2022/12/28 12:48:31;;;;;;;12.02;3.92;;;10.50;99.90;;;;;;5115156;28;20162;-58
2022/12/28 12:51:03;;;;;;;9.93;3.65;;;10.50;99.90;;;;;;5115107;28;20165;-59
2022/12/28 12:53:58;;;;;;;9.38;4.53;;;10.50;99.90;;;;;;5114748;28;20173;-58
2022/12/28 12:56:51;;;;;;;8.73;3.35;;;10.50;99.90;;;;;;5091966;28;20197;-58
2022/12/28 12:59:40;;;;;;;10.82;4.22;;;10.60;99.90;;;;;;5114789;28;20188;-58
2022/12/28 13:02:42;;;;;;;6.90;3.25;;;10.60;99.90;;;;;;5114722;28;20583;-58
2022/12/28 13:05:20;;;;;;;7.72;3.45;;;10.70;99.90;;;;;;5103104;28;20596;-59
2022/12/28 13:07:46;;;;;;;6.38;2.83;;;10.70;99.90;;;;;;5114593;28;20176;-59
2022/12/28 13:10:32;;;;;;;7.93;3.63;;;10.80;99.90;;;;;;5114431;28;20177;-58
2022/12/28 13:13:00;;;;;;;5.70;2.90;;;10.80;99.90;;;;;;5114334;28;20203;-58
2022/12/28 13:15:27;;;;;;;7.88;2.90;;;10.80;99.90;;;;;;5114441;28;20283;-58
2022/12/28 13:18:14;;;;;;;8.70;3.25;;;10.70;99.90;;;;;;5114292;28;20652;-59
2022/12/28 13:20:40;;;;;;;5.00;2.80;;;10.70;99.90;;;;;;5114427;28;20166;-58
2022/12/28 13:23:15;;;;;;;6.57;2.92;;;10.70;99.90;;;;;;5114205;28;20246;-58
2022/12/28 13:25:47;;;;;;;6.22;3.22;;;10.70;99.90;;;;;;5114415;28;20176;-58
2022/12/28 13:28:33;;;;;;;6.22;2.90;;;10.80;99.90;;;;;;5114423;28;20646;-58
2022/12/28 13:31:24;;;;;;;5.88;2.70;;;10.90;99.90;;;;;;5114271;28;20252;-59
2022/12/28 13:33:57;;;;;;;8.10;2.88;;;10.90;99.90;;;;;;5113992;28;20193;-58
2022/12/28 13:36:23;;;;;;;8.88;2.85;;;11.00;99.90;;;;;;5114262;28;20695;-58
2022/12/28 13:39:01;;;;;;;5.90;2.55;;;11.00;99.90;;;;;;5114100;28;20253;-58
2022/12/28 13:41:26;;;;;;;6.50;2.50;;;11.20;99.90;;;;;;5114171;28;20173;-58
2022/12/28 13:44:24;;;;;;;6.65;2.55;;;11.00;99.90;;;;;;5114074;28;20203;-58
2022/12/28 13:47:19;;;;;;;5.50;2.60;;;11.00;99.90;;;;;;5113983;28;20168;-58
2022/12/28 13:49:54;;;;;;;6.13;2.75;;;11.00;99.90;;;;;;5110565;28;20531;-59